createdAt,value
2018-08-18T00:00:18.605Z,13.42
2018-08-18T00:01:18.577Z,13.39
2018-08-18T00:02:18.578Z,13.39
2018-08-18T00:03:18.562Z,13.42
2018-08-18T00:04:18.565Z,13.36
2018-08-18T00:05:18.536Z,13.39
2018-08-18T00:06:18.783Z,13.36
2018-08-18T00:07:18.487Z,13.33
2018-08-18T00:08:18.468Z,13.38
2018-08-18T00:09:18.522Z,13.28
2018-08-18T00:10:18.448Z,13.32
2018-08-18T00:11:18.435Z,13.25
2018-08-18T00:12:18.444Z,13.22
2018-08-18T00:13:18.371Z,13.23
2018-08-18T00:14:18.457Z,13.30
2018-08-18T00:15:18.366Z,13.41
2018-08-18T00:16:18.334Z,13.45
2018-08-18T00:17:18.361Z,13.46
2018-08-18T00:18:18.308Z,13.48
2018-08-18T00:19:18.272Z,13.41
2018-08-18T00:20:18.278Z,13.45
2018-08-18T11:22:42.518Z,26.65
2018-08-18T11:23:42.489Z,27.24
2018-08-18T11:24:42.478Z,27.70
2018-08-18T11:25:42.479Z,27.99
2018-08-18T11:26:42.450Z,28.29
2018-08-18T11:27:42.441Z,28.33
2018-08-18T11:28:42.563Z,28.71
2018-08-18T11:29:42.416Z,29.46
2018-08-18T11:30:42.414Z,29.65
2018-08-18T11:31:42.390Z,29.65
2018-08-18T11:32:42.381Z,29.68
2018-08-18T11:33:42.367Z,29.87
2018-08-18T11:34:42.356Z,30.04
2018-08-18T11:35:42.354Z,29.78
2018-08-18T11:36:42.333Z,28.98
2018-08-18T11:37:42.325Z,29.67
2018-08-18T11:38:42.311Z,29.06
2018-08-18T11:39:42.300Z,29.68
2018-08-18T11:40:42.305Z,30.17
2018-08-18T11:41:42.323Z,30.05
2018-08-18T11:42:42.268Z,30.05
2018-08-18T11:43:42.264Z,30.19
2018-08-18T11:44:42.251Z,30.62
2018-08-18T11:45:42.250Z,30.80
2018-08-18T11:46:42.228Z,30.75
2018-08-18T11:47:42.220Z,30.53
2018-08-18T11:48:42.210Z,30.34
2018-08-18T11:49:42.202Z,30.20
2018-08-18T11:50:42.205Z,30.54
2018-08-18T11:51:42.179Z,30.34
2018-08-18T11:52:42.169Z,30.08
2018-08-18T11:53:42.160Z,29.45
2018-08-18T11:54:42.148Z,28.83
2018-08-18T11:55:42.140Z,29.49
2018-08-18T11:56:42.139Z,29.61
2018-08-18T11:57:42.121Z,29.65
2018-08-18T11:58:42.109Z,29.67
2018-08-18T11:59:42.101Z,29.85
2018-08-18T12:00:42.106Z,30.51
2018-08-18T12:01:42.082Z,31.19
2018-08-18T12:02:42.069Z,30.99
2018-08-18T12:03:42.065Z,30.67
2018-08-18T12:04:42.058Z,31.23
2018-08-18T12:05:42.044Z,31.46
2018-08-18T12:06:42.042Z,29.82
2018-08-18T12:07:42.024Z,29.89
2018-08-18T12:08:42.017Z,30.49
2018-08-18T12:09:42.037Z,29.24
2018-08-18T12:10:42.093Z,29.09
2018-08-18T12:11:41.994Z,29.71
2018-08-18T12:12:41.977Z,29.09
2018-08-18T12:13:41.968Z,29.24
2018-08-18T12:14:41.958Z,29.31
2018-08-18T12:15:41.954Z,29.41
2018-08-18T12:16:41.949Z,30.07
2018-08-18T12:17:41.945Z,30.17
2018-08-18T12:18:41.922Z,30.57
2018-08-18T12:19:41.915Z,30.64
2018-08-18T12:20:41.908Z,30.10
2018-08-18T12:21:41.906Z,30.42
2018-08-18T12:22:41.887Z,30.23
2018-08-18T12:23:41.879Z,30.75
2018-08-18T12:24:41.870Z,30.83
2018-08-18T12:25:41.859Z,30.35
2018-08-18T12:26:41.872Z,30.88
2018-08-18T12:27:41.842Z,30.65
2018-08-18T12:28:41.833Z,29.90
2018-08-18T12:29:41.915Z,30.24
2018-08-18T12:30:41.813Z,30.04
2018-08-18T12:31:41.820Z,30.05
2018-08-18T12:32:41.796Z,29.52
2018-08-18T12:33:41.800Z,30.07
2018-08-18T12:34:41.780Z,29.26
2018-08-18T12:35:41.770Z,29.16
2018-08-18T12:36:41.803Z,29.73
2018-08-18T12:37:41.752Z,29.89
2018-08-18T12:38:41.742Z,29.41
2018-08-18T12:39:41.734Z,29.85
2018-08-18T12:40:41.726Z,30.19
2018-08-18T12:41:41.730Z,30.37
2018-08-18T12:42:41.711Z,30.53
2018-08-18T12:43:41.701Z,30.97
2018-08-18T12:44:41.689Z,31.21
2018-08-18T12:45:41.681Z,30.97
2018-08-18T12:46:41.681Z,30.75
2018-08-18T12:47:41.665Z,30.80
2018-08-18T12:48:41.655Z,31.01
2018-08-18T12:49:41.652Z,31.47
2018-08-18T12:50:41.635Z,32.23
2018-08-18T12:51:41.638Z,31.56
2018-08-18T12:52:41.624Z,31.39
2018-08-18T12:53:41.611Z,31.01
2018-08-18T12:54:41.603Z,31.23
2018-08-18T12:55:41.605Z,30.69
2018-08-18T12:56:41.596Z,30.57
2018-08-18T12:57:41.578Z,31.20
2018-08-18T12:58:41.761Z,31.34
2018-08-18T12:59:41.560Z,30.83
2018-08-18T13:00:41.551Z,30.46
2018-08-18T13:01:41.555Z,29.41
2018-08-18T13:02:41.534Z,30.10
2018-08-18T13:03:41.528Z,31.04
2018-08-18T13:04:41.519Z,31.43
2018-08-18T13:05:41.511Z,31.13
2018-08-18T13:06:41.515Z,30.98
2018-08-18T13:07:41.492Z,31.28
2018-08-18T13:08:41.484Z,31.81
2018-08-18T13:09:41.477Z,32.43
2018-08-18T13:10:41.475Z,32.50
2018-08-18T13:11:41.462Z,32.50
2018-08-18T13:12:41.466Z,32.21
2018-08-18T13:13:41.446Z,31.93
2018-08-18T13:14:41.438Z,32.10
2018-08-18T13:15:41.430Z,31.23
2018-08-18T13:16:41.422Z,31.28
2018-08-18T13:17:41.427Z,31.54
2018-08-18T13:18:41.433Z,31.48
2018-08-18T13:19:41.400Z,30.72
2018-08-18T13:20:41.437Z,31.06
2018-08-18T13:21:41.386Z,31.20
2018-08-18T13:22:41.386Z,31.21
2018-08-18T13:23:41.367Z,30.35
2018-08-18T13:24:41.365Z,30.94
2018-08-18T13:25:41.354Z,29.98
2018-08-18T13:26:41.350Z,29.68
2018-08-18T13:27:41.351Z,29.09
2018-08-18T13:28:41.332Z,29.52
2018-08-18T13:29:41.325Z,29.79
2018-08-18T13:30:41.318Z,30.23
2018-08-18T13:31:41.311Z,30.75
2018-08-18T13:32:41.316Z,30.79
2018-08-18T13:33:41.302Z,30.46
2018-08-18T13:34:41.289Z,30.67
2018-08-18T13:35:41.283Z,30.99
2018-08-18T13:36:41.276Z,31.91
2018-08-18T13:37:41.282Z,32.85
2018-08-18T13:38:41.262Z,32.23
2018-08-18T13:39:41.254Z,30.89
2018-08-18T13:40:41.249Z,30.17
2018-08-18T13:41:41.244Z,31.01
2018-08-18T13:42:41.242Z,31.07
2018-08-18T13:43:41.229Z,30.88
2018-08-18T13:44:41.220Z,31.36
2018-08-18T13:45:41.212Z,32.10
2018-08-18T13:46:41.265Z,32.62
2018-08-18T13:47:41.212Z,32.82
2018-08-18T13:48:41.197Z,33.12
2018-08-18T13:49:41.186Z,33.23
2018-08-18T13:50:41.178Z,33.21
2018-08-18T13:51:41.172Z,33.16
2018-08-18T13:52:41.194Z,32.75
2018-08-18T13:53:41.165Z,32.23
2018-08-18T13:54:41.154Z,31.65
2018-08-18T13:55:41.154Z,30.38
2018-08-18T13:56:41.141Z,30.54
2018-08-18T13:57:41.156Z,30.46
2018-08-18T13:58:41.184Z,31.21
2018-08-18T13:59:41.124Z,32.01
2018-08-18T14:00:41.120Z,32.57
2018-08-18T14:01:41.109Z,32.78
2018-08-18T14:02:41.119Z,32.44
2018-08-18T14:03:41.102Z,30.70
2018-08-18T14:04:41.100Z,31.20
2018-08-18T14:05:41.090Z,31.29
2018-08-18T14:06:41.085Z,30.07
2018-08-18T14:07:41.101Z,30.67
2018-08-18T14:08:41.075Z,30.15
2018-08-18T14:09:41.069Z,30.77
2018-08-18T14:10:41.069Z,30.42
2018-08-18T14:11:41.059Z,31.75
2018-08-18T14:12:41.066Z,32.32
2018-08-18T14:13:41.047Z,32.59
2018-08-18T14:14:41.039Z,31.44
2018-08-18T14:15:41.038Z,31.19
2018-08-18T14:16:41.031Z,31.86
2018-08-18T14:17:41.040Z,32.57
2018-08-18T14:18:41.021Z,32.88
2018-08-18T14:19:41.016Z,32.40
2018-08-18T14:20:41.011Z,32.93
2018-08-18T14:21:41.017Z,33.81
2018-08-18T14:22:41.013Z,33.61
2018-08-18T14:23:40.997Z,33.07
2018-08-18T14:24:40.993Z,31.58
2018-08-18T14:25:40.994Z,32.14
2018-08-18T14:26:40.983Z,32.13
2018-08-18T14:27:40.990Z,31.99
2018-08-18T14:28:40.973Z,31.51
2018-08-18T14:29:40.969Z,31.76
2018-08-18T14:30:40.965Z,32.00
2018-08-18T14:31:40.962Z,30.70
2018-08-18T14:32:40.967Z,30.43
2018-08-18T14:33:40.953Z,30.95
2018-08-18T14:34:40.949Z,31.20
2018-08-18T14:35:40.951Z,30.61
2018-08-18T14:36:40.943Z,31.56
2018-08-18T14:37:40.961Z,32.00
2018-08-18T14:38:40.932Z,32.19
2018-08-18T14:39:40.929Z,31.96
2018-08-18T14:40:40.924Z,31.58
2018-08-18T14:41:40.922Z,30.26
2018-08-18T14:42:40.916Z,30.84
2018-08-18T14:43:40.923Z,31.35
2018-08-18T14:44:40.969Z,30.97
2018-08-18T14:45:40.912Z,31.07
2018-08-18T14:46:41.094Z,29.64
2018-08-18T14:47:40.899Z,30.88
2018-08-18T14:48:40.904Z,31.13
2018-08-18T14:49:40.888Z,31.43
2018-08-18T14:50:40.888Z,32.21
2018-08-18T14:51:40.883Z,32.94
2018-08-18T14:52:40.877Z,33.34
2018-08-18T14:53:40.885Z,33.71
2018-08-18T14:54:40.868Z,32.69
2018-08-18T14:55:40.865Z,32.18
2018-08-18T14:56:40.862Z,32.25
2018-08-18T14:57:40.858Z,31.75
2018-08-18T14:58:40.888Z,32.21
2018-08-18T14:59:40.851Z,32.11
2018-08-18T15:00:40.848Z,31.72
2018-08-18T15:01:40.846Z,31.85
2018-08-18T15:02:40.843Z,32.19
2018-08-18T15:03:40.849Z,32.43
2018-08-18T15:04:40.840Z,33.04
2018-08-18T15:05:40.834Z,32.25
2018-08-18T15:06:40.829Z,32.69
2018-08-18T15:07:40.826Z,32.57
2018-08-18T15:08:40.854Z,31.47
2018-08-18T15:09:40.819Z,31.75
2018-08-18T15:10:40.815Z,32.03
2018-08-18T15:11:40.813Z,32.22
2018-08-18T15:12:40.813Z,32.14
2018-08-18T15:13:40.828Z,32.88
2018-08-18T15:14:40.805Z,33.16
2018-08-18T15:15:40.939Z,33.29
2018-08-18T15:16:40.801Z,33.06
2018-08-18T15:17:40.799Z,33.65
2018-08-18T15:18:40.795Z,32.45
2018-08-18T15:19:40.815Z,32.23
2018-08-18T15:20:40.791Z,32.41
2018-08-18T15:21:40.789Z,32.56
2018-08-18T15:22:40.788Z,32.88
2018-08-18T15:23:40.783Z,33.54
2018-08-18T15:24:40.791Z,34.31
2018-08-18T15:25:40.778Z,34.24
2018-08-18T15:26:40.776Z,34.84
2018-08-18T15:27:40.775Z,34.72
2018-08-18T15:28:40.771Z,33.57
2018-08-18T15:29:40.782Z,34.03
2018-08-18T15:30:40.767Z,33.69
2018-08-18T15:31:40.763Z,32.94
2018-08-18T15:32:40.764Z,32.38
2018-08-18T15:33:40.762Z,32.30
2018-08-18T15:34:40.770Z,31.96
2018-08-18T15:35:40.761Z,31.31
2018-08-18T15:36:40.758Z,29.76
2018-08-18T15:37:40.753Z,30.16
2018-08-18T15:38:40.754Z,30.55
2018-08-18T15:39:40.765Z,30.26
2018-08-18T15:40:40.744Z,31.44
2018-08-18T15:41:40.744Z,31.92
2018-08-18T15:42:40.742Z,32.41
2018-08-18T15:43:40.738Z,32.22
2018-08-18T15:44:40.736Z,31.70
2018-08-18T15:45:40.745Z,29.67
2018-08-18T15:46:40.730Z,29.52
2018-08-18T15:47:40.728Z,29.11
2018-08-18T15:48:40.728Z,29.51
2018-08-18T15:49:40.725Z,30.00
2018-08-18T15:50:40.731Z,30.20
2018-08-18T15:51:40.718Z,29.71
2018-08-18T15:52:40.716Z,29.87
2018-08-18T15:53:40.715Z,29.37
2018-08-18T15:54:40.708Z,29.83
2018-08-18T15:55:40.723Z,29.85
2018-08-18T15:56:40.703Z,29.87
2018-08-18T15:57:40.699Z,29.89
2018-08-18T15:58:40.694Z,30.95
2018-08-18T15:59:40.694Z,31.31
2018-08-18T16:00:40.690Z,31.54
2018-08-18T16:01:40.697Z,31.72
2018-08-18T16:02:40.683Z,31.56
2018-08-18T16:03:40.679Z,30.53
2018-08-18T16:04:40.677Z,30.08
2018-08-18T16:05:40.676Z,29.71
2018-08-18T16:06:40.679Z,29.36
2018-08-18T16:07:40.668Z,29.83
2018-08-18T16:08:40.664Z,30.47
2018-08-18T16:09:40.663Z,29.58
2018-08-18T16:10:40.658Z,30.16
2018-08-18T16:11:40.673Z,30.98
2018-08-18T16:12:40.654Z,30.89
2018-08-18T16:13:40.653Z,30.95
2018-08-18T16:14:40.645Z,31.06
2018-08-18T16:15:40.646Z,30.80
2018-08-18T16:16:40.638Z,31.23
2018-08-18T16:17:40.646Z,31.36
2018-08-18T16:18:40.634Z,31.44
2018-08-18T16:19:40.634Z,31.56
2018-08-18T16:20:40.628Z,31.21
2018-08-18T16:21:40.625Z,30.47
2018-08-18T16:22:40.632Z,30.13
2018-08-18T16:23:40.623Z,30.46
2018-08-18T16:24:40.615Z,30.88
2018-08-18T16:25:40.620Z,31.34
2018-08-18T16:26:40.609Z,31.14
2018-08-18T16:27:40.617Z,30.64
2018-08-18T16:28:40.604Z,29.86
2018-08-18T16:29:40.601Z,30.65
2018-08-18T16:30:40.597Z,30.61
2018-08-18T16:31:40.595Z,30.02
2018-08-18T16:32:40.603Z,29.30
2018-08-18T16:33:40.593Z,29.26
2018-08-18T16:34:40.589Z,30.20
2018-08-18T16:35:40.585Z,30.70
2018-08-18T16:36:40.581Z,29.05
2018-08-18T16:37:40.588Z,30.05
2018-08-18T16:38:40.574Z,30.20
2018-08-18T16:39:40.573Z,30.31
2018-08-18T16:40:40.571Z,29.16
2018-08-18T16:41:40.567Z,29.46
2018-08-18T16:42:40.633Z,29.55
2018-08-18T16:43:40.559Z,29.33
2018-08-18T16:44:40.558Z,27.81
2018-08-18T16:45:40.555Z,28.22
2018-08-18T16:46:40.548Z,28.62
2018-08-18T16:47:40.565Z,28.92
2018-08-18T16:48:40.542Z,28.83
2018-08-18T16:49:40.539Z,28.07
2018-08-18T16:50:40.539Z,28.19
2018-08-18T16:51:40.530Z,28.49
2018-08-18T16:52:40.527Z,28.51
2018-08-18T16:53:40.550Z,28.22
2018-08-18T16:54:40.518Z,27.90
2018-08-18T16:55:40.517Z,27.70
2018-08-18T16:56:40.508Z,27.94
2018-08-18T16:57:40.504Z,27.85
2018-08-18T16:58:40.513Z,27.79
2018-08-18T16:59:40.493Z,27.82
2018-08-18T17:00:40.491Z,27.74
2018-08-18T17:01:40.494Z,27.70
2018-08-18T17:02:40.477Z,27.51
2018-08-18T17:03:40.469Z,27.60
2018-08-18T17:04:40.478Z,27.41
2018-08-18T17:05:40.458Z,27.21
2018-08-18T17:06:40.457Z,27.51
2018-08-18T17:07:40.447Z,27.59
2018-08-18T17:08:40.442Z,26.87
2018-08-18T17:09:40.444Z,26.84
2018-08-18T17:10:40.428Z,27.13
2018-08-18T17:11:40.420Z,27.46
2018-08-18T17:12:40.415Z,27.79
2018-08-18T17:13:40.409Z,28.34
2018-08-18T17:14:40.421Z,28.54
2018-08-18T17:15:40.398Z,28.77
2018-08-18T17:16:40.481Z,29.05
2018-08-18T17:17:40.382Z,28.06
2018-08-18T17:18:40.375Z,27.57
2018-08-18T17:19:40.369Z,27.65
2018-08-18T17:20:40.374Z,27.31
2018-08-18T17:21:40.356Z,27.32
2018-08-18T17:22:40.350Z,27.43
2018-08-18T17:23:40.423Z,27.40
2018-08-18T17:24:40.340Z,27.44
2018-08-18T17:25:40.342Z,27.67
2018-08-18T17:26:40.325Z,27.79
2018-08-18T17:27:40.323Z,27.96
2018-08-18T17:28:40.312Z,27.79
2018-08-18T17:29:40.306Z,27.65
2018-08-18T17:30:40.311Z,27.46
2018-08-18T17:31:40.296Z,27.29
2018-08-18T17:32:40.289Z,26.84
2018-08-18T17:33:40.286Z,27.14
2018-08-18T17:34:40.276Z,27.18
2018-08-18T17:35:40.274Z,27.21
2018-08-18T17:36:40.262Z,27.19
2018-08-18T17:37:40.259Z,27.03
2018-08-18T17:38:40.249Z,27.04
2018-08-18T17:39:40.246Z,27.07
2018-08-18T17:40:40.247Z,27.14
2018-08-18T17:41:40.230Z,27.28
2018-08-18T17:42:40.221Z,27.21
2018-08-18T17:43:40.218Z,26.91
2018-08-18T17:44:40.210Z,26.52
2018-08-18T17:45:40.239Z,25.83
2018-08-18T17:46:40.194Z,25.67
2018-08-18T17:47:40.193Z,25.55
2018-08-18T17:48:40.180Z,25.47
2018-08-18T17:49:40.207Z,25.58
2018-08-18T17:50:40.167Z,25.28
2018-08-18T17:51:40.169Z,25.28
2018-08-18T17:52:40.160Z,25.33
2018-08-18T17:53:40.142Z,25.13
2018-08-18T17:54:40.133Z,25.10
2018-08-18T17:55:40.124Z,25.06
2018-08-18T17:56:40.129Z,25.02
2018-08-18T17:57:40.109Z,25.00
2018-08-18T17:58:40.101Z,24.99
2018-08-18T17:59:40.092Z,24.98
2018-08-18T18:00:40.167Z,24.99
2018-08-18T18:01:40.110Z,24.96
2018-08-18T18:02:40.066Z,24.96
2018-08-18T18:03:40.060Z,24.71
2018-08-18T18:04:40.047Z,24.69
2018-08-18T18:05:40.116Z,24.57
2018-08-18T18:06:40.027Z,24.49
2018-08-18T18:07:40.030Z,24.49
2018-08-18T18:08:40.009Z,24.45
2018-08-18T18:09:40.000Z,24.39
2018-08-18T18:10:39.990Z,24.31
2018-08-18T18:11:39.980Z,24.21
2018-08-18T18:12:39.984Z,24.18
2018-08-18T18:13:39.962Z,24.10
2018-08-18T18:14:39.950Z,24.21
2018-08-18T18:15:39.944Z,24.09
2018-08-18T18:16:39.939Z,23.95
2018-08-18T18:17:39.955Z,23.88
2018-08-18T18:18:39.933Z,23.90
2018-08-18T18:19:39.908Z,23.85
2018-08-18T18:20:39.933Z,23.73
2018-08-18T18:21:39.931Z,23.70
2018-08-18T18:22:39.917Z,23.70
2018-08-18T18:23:39.877Z,23.68
2018-08-18T18:24:39.914Z,23.63
2018-08-18T18:25:39.862Z,23.63
2018-08-18T18:26:39.890Z,23.53
2018-08-18T18:27:39.886Z,23.42
2018-08-18T18:28:39.883Z,23.40
2018-08-18T18:29:39.848Z,23.28
2018-08-18T18:30:39.813Z,23.27
2018-08-18T18:31:39.800Z,23.25
2018-08-18T18:32:39.796Z,23.19
2018-08-18T18:33:39.885Z,23.16
2018-08-18T18:34:39.770Z,23.13
2018-08-18T18:35:39.721Z,23.10
2018-08-18T18:36:39.733Z,23.13
2018-08-18T18:37:39.704Z,23.15
2018-08-18T18:38:39.708Z,23.01
2018-08-18T18:39:39.771Z,23.05
2018-08-18T18:40:39.695Z,23.02
2018-08-18T18:41:39.705Z,22.94
2018-08-18T18:42:39.732Z,22.82
2018-08-18T18:43:39.670Z,22.79
2018-08-18T18:44:39.639Z,22.86
2018-08-18T18:45:39.659Z,22.76
2018-08-18T18:46:39.641Z,22.75
2018-08-18T18:47:39.604Z,22.67
2018-08-18T18:48:40.311Z,22.60
2018-08-18T18:49:39.746Z,22.65
2018-08-18T18:50:39.581Z,22.57
2018-08-18T18:51:39.559Z,22.51
2018-08-18T18:52:39.559Z,22.55
2018-08-18T18:53:39.543Z,22.54
2018-08-18T18:54:39.718Z,22.52
2018-08-18T18:55:39.658Z,22.45
2018-08-18T18:56:39.533Z,22.40
2018-08-18T18:57:39.526Z,22.33
2018-08-18T18:58:39.485Z,22.25
2018-08-18T18:59:39.469Z,22.37
2018-08-18T19:00:39.448Z,22.40
2018-08-18T19:01:39.443Z,22.47
2018-08-18T19:02:39.432Z,22.42
2018-08-18T19:03:39.408Z,22.47
2018-08-18T19:04:39.423Z,22.40
2018-08-18T19:05:39.396Z,22.25
2018-08-18T19:06:39.451Z,22.31
2018-08-18T19:07:39.463Z,22.15
2018-08-18T19:08:39.382Z,22.05
2018-08-18T19:09:39.440Z,21.94
2018-08-18T19:10:39.356Z,22.12
2018-08-18T19:11:39.343Z,22.03
2018-08-18T19:12:39.334Z,21.88
2018-08-18T19:13:39.281Z,21.88
2018-08-18T19:14:39.264Z,21.94
2018-08-18T19:15:39.301Z,21.98
2018-08-18T19:16:39.316Z,21.77
2018-08-18T19:17:39.245Z,21.69
2018-08-18T19:18:39.222Z,21.67
2018-08-18T19:19:39.268Z,21.68
2018-08-18T19:20:39.288Z,21.62
2018-08-18T19:21:39.200Z,21.54
2018-08-18T19:22:39.193Z,21.58
2018-08-18T19:23:39.172Z,21.69
2018-08-18T19:24:39.149Z,21.59
2018-08-18T19:25:39.141Z,21.67
2018-08-18T19:26:39.109Z,21.69
2018-08-18T19:27:39.101Z,21.64
2018-08-18T19:28:39.154Z,21.71
2018-08-18T19:29:39.073Z,21.71
2018-08-18T19:30:39.064Z,21.65
2018-08-18T19:31:39.061Z,21.56
2018-08-18T19:32:39.139Z,21.62
2018-08-18T19:33:39.028Z,21.54
2018-08-18T19:34:39.075Z,21.56
2018-08-18T19:35:39.035Z,21.42
2018-08-18T19:36:39.753Z,21.38
2018-08-18T19:37:39.137Z,21.22
2018-08-18T19:38:38.975Z,21.17
2018-08-18T19:39:39.003Z,21.03
2018-08-18T19:40:38.972Z,20.88
2018-08-18T19:41:38.973Z,20.80
2018-08-18T19:42:39.104Z,20.74
2018-08-18T19:43:38.919Z,20.67
2018-08-18T19:44:38.896Z,20.59
2018-08-18T19:45:39.761Z,20.54
2018-08-18T19:46:38.938Z,20.48
2018-08-18T19:47:38.874Z,20.41
2018-08-18T19:48:39.758Z,20.36
2018-08-18T19:49:38.861Z,20.36
2018-08-18T19:50:38.874Z,20.38
2018-08-18T19:51:38.816Z,20.31
2018-08-18T19:52:38.824Z,20.18
2018-08-18T19:53:38.771Z,20.17
2018-08-18T19:54:38.902Z,20.17
2018-08-18T19:55:38.760Z,20.02
2018-08-18T19:56:38.757Z,19.99
2018-08-18T19:57:38.708Z,19.91
2018-08-18T19:58:38.676Z,19.96
2018-08-18T19:59:38.688Z,19.92
2018-08-18T20:00:38.662Z,19.98
2018-08-18T20:01:38.691Z,19.84
2018-08-18T20:02:38.646Z,19.86
2018-08-18T20:03:38.676Z,19.92
2018-08-18T20:04:38.640Z,20.01
2018-08-18T20:05:38.664Z,20.03
2018-08-18T20:06:38.602Z,20.01
2018-08-18T20:07:38.566Z,20.02
2018-08-18T20:08:38.548Z,19.95
2018-08-18T20:09:38.528Z,19.88
2018-08-18T20:10:38.521Z,19.96
2018-08-18T20:11:38.529Z,19.81
2018-08-18T20:12:38.481Z,19.68
2018-08-18T20:13:38.497Z,19.68
2018-08-18T20:14:38.466Z,19.61
2018-08-18T20:15:38.452Z,19.59
2018-08-18T20:16:38.455Z,19.46
2018-08-18T20:17:38.426Z,19.37
2018-08-18T20:18:38.479Z,19.32
2018-08-18T20:19:38.399Z,19.29
2018-08-18T20:20:38.383Z,19.10
2018-08-18T20:21:38.381Z,18.99
2018-08-18T20:22:38.370Z,18.98
2018-08-18T20:23:38.332Z,18.98
2018-08-18T20:24:38.395Z,19.06
2018-08-18T20:25:38.330Z,19.06
2018-08-18T20:26:38.296Z,18.98
2018-08-18T20:27:38.296Z,18.90
2018-08-18T20:28:38.270Z,18.91
2018-08-18T20:29:38.258Z,18.87
2018-08-18T20:30:38.241Z,18.81
2018-08-18T20:31:38.283Z,18.84
2018-08-18T20:32:38.233Z,18.63
2018-08-18T20:33:38.269Z,18.63
2018-08-18T20:34:38.267Z,18.62
2018-08-18T20:35:38.179Z,18.45
2018-08-18T20:36:38.167Z,18.42
2018-08-18T20:37:38.163Z,18.39
2018-08-18T20:38:38.179Z,18.44
2018-08-18T20:39:38.156Z,18.41
2018-08-18T20:40:38.127Z,18.39
2018-08-18T20:41:38.099Z,18.23
2018-08-18T20:42:38.083Z,18.27
2018-08-18T20:43:38.072Z,18.32
2018-08-18T20:44:38.046Z,18.25
2018-08-18T20:45:38.021Z,18.21
2018-08-18T20:46:38.012Z,18.27
2018-08-18T20:47:37.994Z,18.17
2018-08-18T20:48:38.185Z,18.14
2018-08-18T20:49:37.964Z,18.15
2018-08-18T20:50:37.948Z,18.27
2018-08-18T20:51:37.937Z,18.21
2018-08-18T20:52:37.924Z,18.15
2018-08-18T20:53:37.960Z,18.21
2018-08-18T20:54:37.892Z,18.12
2018-08-18T20:55:37.876Z,18.20
2018-08-18T20:56:37.865Z,18.26
2018-08-18T20:57:37.848Z,18.29
2018-08-18T20:58:37.844Z,18.26
2018-08-18T20:59:37.819Z,18.36
2018-08-18T21:00:37.804Z,18.45
2018-08-18T21:01:37.791Z,18.45
2018-08-18T21:02:37.774Z,18.36
2018-08-18T21:03:37.778Z,18.37
2018-08-18T21:04:37.747Z,18.36
2018-08-18T21:05:37.730Z,18.33
2018-08-18T21:06:37.717Z,18.33
2018-08-18T21:07:37.701Z,18.26
2018-08-18T21:08:37.687Z,18.33
2018-08-18T21:09:37.682Z,18.27
2018-08-18T21:10:37.660Z,18.11
2018-08-18T21:11:37.647Z,17.96
2018-08-18T21:12:37.628Z,17.93
2018-08-18T21:13:37.693Z,17.92
2018-08-18T21:14:37.608Z,17.77
2018-08-18T21:15:37.587Z,17.79
2018-08-18T21:16:37.570Z,17.74
2018-08-18T21:17:37.556Z,17.77
2018-08-18T21:18:37.542Z,17.81
2018-08-18T21:19:37.538Z,17.82
2018-08-18T21:20:37.563Z,17.77
2018-08-18T21:21:37.497Z,17.66
2018-08-18T21:22:37.486Z,17.63
2018-08-18T21:23:37.475Z,17.59
2018-08-18T21:24:37.469Z,17.48
2018-08-18T21:25:37.442Z,17.46
2018-08-18T21:26:37.424Z,17.44
2018-08-18T21:27:37.406Z,17.40
2018-08-18T21:28:37.391Z,17.37
2018-08-18T21:29:37.377Z,17.37
2018-08-18T21:30:37.373Z,17.38
2018-08-18T21:31:37.358Z,17.38
2018-08-18T21:32:37.334Z,17.36
2018-08-18T21:33:37.321Z,17.19
2018-08-18T21:34:37.302Z,17.26
2018-08-18T21:35:37.300Z,17.28
2018-08-18T21:36:37.270Z,17.25
2018-08-18T21:37:37.258Z,17.31
2018-08-18T21:38:37.243Z,17.18
2018-08-18T21:39:37.228Z,17.16
2018-08-18T21:40:37.232Z,17.14
2018-08-18T21:41:37.202Z,17.19
2018-08-18T21:42:37.181Z,17.15
2018-08-18T21:43:37.167Z,16.98
2018-08-18T21:44:37.152Z,17.07
2018-08-18T21:45:37.138Z,16.98
2018-08-18T21:46:37.136Z,17.11
2018-08-18T21:47:37.111Z,17.15
2018-08-18T21:48:37.092Z,17.14
2018-08-18T21:49:37.079Z,17.14
2018-08-18T21:50:37.072Z,17.00
2018-08-18T21:51:37.058Z,17.12
2018-08-18T21:52:37.032Z,17.19
2018-08-18T21:53:37.018Z,17.23
2018-08-18T21:54:37.006Z,17.16
2018-08-18T21:55:36.985Z,17.15
2018-08-18T21:56:36.981Z,16.98
2018-08-18T21:57:36.956Z,16.97
2018-08-18T21:58:36.939Z,17.07
2018-08-18T21:59:36.929Z,16.98
2018-08-18T22:00:36.918Z,16.88
2018-08-18T22:01:36.901Z,16.86
2018-08-18T22:02:36.879Z,16.79
2018-08-18T22:03:36.862Z,16.78
2018-08-18T22:04:36.848Z,16.71
2018-08-18T22:05:36.833Z,16.73
2018-08-18T22:06:36.831Z,16.68
2018-08-18T22:07:36.801Z,16.66
2018-08-18T22:08:36.787Z,16.60
2018-08-18T22:09:36.770Z,16.61
2018-08-18T22:10:36.757Z,16.60
2018-08-18T22:11:36.742Z,16.52
2018-08-18T22:12:36.735Z,16.56
2018-08-18T22:13:36.713Z,16.53
2018-08-18T22:14:36.709Z,16.60
2018-08-18T22:15:36.679Z,16.56
2018-08-18T22:16:36.666Z,16.68
2018-08-18T22:17:36.660Z,16.68
2018-08-18T22:18:36.632Z,16.67
2018-08-18T22:19:36.617Z,16.64
2018-08-18T22:20:36.601Z,16.63
2018-08-18T22:21:36.583Z,16.53
2018-08-18T22:22:36.617Z,16.46
2018-08-18T22:23:36.565Z,16.45
2018-08-18T22:24:36.566Z,16.48
2018-08-18T22:25:36.524Z,16.46
2018-08-18T22:26:36.508Z,16.35
2018-08-18T22:27:36.500Z,16.42
2018-08-18T22:28:36.479Z,16.38
2018-08-18T22:29:36.460Z,16.39
2018-08-18T22:30:36.445Z,16.30
2018-08-18T22:31:36.429Z,16.30
2018-08-18T22:32:36.447Z,16.28
2018-08-18T22:33:36.397Z,16.24
2018-08-18T22:34:36.386Z,16.30
2018-08-18T22:35:36.371Z,16.23
2018-08-18T22:36:36.351Z,16.25
2018-08-18T22:37:36.335Z,16.28
2018-08-18T22:38:36.331Z,16.25
2018-08-18T22:39:36.303Z,16.25
2018-08-18T22:40:36.290Z,16.31
2018-08-18T22:41:36.273Z,16.27
2018-08-18T22:42:36.259Z,16.15
2018-08-18T22:43:36.275Z,16.20
2018-08-18T22:44:36.227Z,16.07
2018-08-18T22:45:36.210Z,16.11
2018-08-18T22:46:36.195Z,16.05
2018-08-18T22:47:36.179Z,16.11
2018-08-18T22:48:36.166Z,16.07
2018-08-18T22:49:36.160Z,16.04
2018-08-18T22:50:36.131Z,16.02
2018-08-18T22:51:36.116Z,15.94
2018-08-18T22:52:36.099Z,16.07
2018-08-18T22:53:36.085Z,15.94
2018-08-18T22:54:36.082Z,16.02
2018-08-18T22:55:36.053Z,16.02
2018-08-18T22:56:36.037Z,16.00
2018-08-18T22:57:36.022Z,15.97
2018-08-18T22:58:36.005Z,16.00
2018-08-18T22:59:35.997Z,15.92
2018-08-18T23:00:35.975Z,15.92
2018-08-18T23:01:35.962Z,15.93
2018-08-18T23:02:35.939Z,16.01
2018-08-18T23:03:35.924Z,15.89
2018-08-18T23:04:35.933Z,15.82
2018-08-18T23:05:35.893Z,15.83
2018-08-18T23:06:35.882Z,15.84
2018-08-18T23:07:35.861Z,15.78
2018-08-18T23:08:35.846Z,15.78
2018-08-18T23:09:35.865Z,15.75
2018-08-18T23:10:35.824Z,15.72
2018-08-18T23:11:35.799Z,15.72
2018-08-18T23:12:35.780Z,15.72
2018-08-18T23:13:35.766Z,15.68
2018-08-18T23:14:35.751Z,15.68
2018-08-18T23:15:35.746Z,15.57
2018-08-18T23:16:35.716Z,15.54
2018-08-18T23:17:35.702Z,15.59
2018-08-18T23:18:35.686Z,15.51
2018-08-18T23:19:35.670Z,15.57
2018-08-18T23:20:35.663Z,15.50
2018-08-18T23:21:35.639Z,15.39
2018-08-18T23:22:35.621Z,15.34
2018-08-18T23:23:35.605Z,15.38
2018-08-18T23:24:35.593Z,15.34
2018-08-18T23:25:35.583Z,15.31
2018-08-18T23:26:35.556Z,15.27
2018-08-18T23:27:35.543Z,15.27
2018-08-18T23:28:35.525Z,15.20
2018-08-18T23:29:35.509Z,15.21
2018-08-18T23:30:35.501Z,15.17
2018-08-18T23:31:35.474Z,15.21
2018-08-18T23:32:35.462Z,15.16
2018-08-18T23:33:35.446Z,15.21
2018-08-18T23:34:35.427Z,15.13
2018-08-18T23:35:35.420Z,15.16
2018-08-18T23:36:35.394Z,15.21
2018-08-18T23:37:35.378Z,15.13
2018-08-18T23:38:35.361Z,15.10
2018-08-18T23:39:35.346Z,15.11
2018-08-18T23:40:35.339Z,15.09
2018-08-18T23:41:35.314Z,15.11
2018-08-18T23:42:35.296Z,15.10
2018-08-18T23:43:35.280Z,15.07
2018-08-18T23:44:35.268Z,15.10
2018-08-18T23:45:35.263Z,15.06
2018-08-18T23:46:35.230Z,15.02
2018-08-18T23:47:35.216Z,15.02
2018-08-18T23:48:35.198Z,15.06
2018-08-18T23:49:35.199Z,15.01
2018-08-18T23:50:35.166Z,14.95
2018-08-18T23:51:35.157Z,14.99
2018-08-18T23:52:35.133Z,14.91
2018-08-18T23:53:35.116Z,14.88